sensor_id;sensor_type;location;lat;lon;timestamp;pressure;altitude;pressure_sealevel;temperature;humidity
71956;BME280;59829;50.562;6.258;2023-04-07T00:27:18;95522.63;;;7.72;100.00
71956;BME280;59829;50.562;6.258;2023-04-07T00:57:19;95513.53;;;7.56;100.00
71956;BME280;59829;50.562;6.258;2023-04-07T01:27:37;95499.28;;;7.54;100.00
71956;BME280;59829;50.562;6.258;2023-04-07T01:57:40;95508.88;;;7.50;100.00
71956;BME280;59829;50.562;6.258;2023-04-07T02:27:40;95506.22;;;7.52;100.00
71956;BME280;59829;50.562;6.258;2023-04-07T02:57:40;95508.84;;;7.39;100.00
71956;BME280;59829;50.562;6.258;2023-04-07T03:27:41;95527.75;;;7.24;100.00
71956;BME280;59829;50.562;6.258;2023-04-07T03:57:41;95504.81;;;7.13;100.00
71956;BME280;59829;50.562;6.258;2023-04-07T04:27:41;95515.41;;;7.07;100.00
71956;BME280;59829;50.562;6.258;2023-04-07T04:57:42;95532.44;;;6.93;100.00
71956;BME280;59829;50.562;6.258;2023-04-07T05:27:42;95551.72;;;6.98;100.00
71956;BME280;59829;50.562;6.258;2023-04-07T05:57:42;95560.78;;;6.89;100.00
71956;BME280;59829;50.562;6.258;2023-04-07T06:27:43;95588.63;;;6.79;100.00
71956;BME280;59829;50.562;6.258;2023-04-07T06:57:43;95628.13;;;6.72;100.00
71956;BME280;59829;50.562;6.258;2023-04-07T07:27:43;95661.13;;;6.61;100.00
71956;BME280;59829;50.562;6.258;2023-04-07T07:57:44;95682.13;;;6.77;100.00
71956;BME280;59829;50.562;6.258;2023-04-07T08:27:44;95697.88;;;6.82;100.00
71956;BME280;59829;50.562;6.258;2023-04-07T08:57:45;95714.88;;;7.07;100.00
71956;BME280;59829;50.562;6.258;2023-04-07T09:28:03;95735.47;;;7.17;100.00
71956;BME280;59829;50.562;6.258;2023-04-07T10:28:08;95741.41;;;7.67;100.00
71956;BME280;59829;50.562;6.258;2023-04-07T10:58:19;95764.22;;;8.29;100.00
71956;BME280;59829;50.562;6.258;2023-04-07T11:28:20;95787.72;;;8.34;100.00
71956;BME280;59829;50.562;6.258;2023-04-07T11:58:21;95809.91;;;8.21;100.00
71956;BME280;59829;50.562;6.258;2023-04-07T12:28:22;95814.06;;;8.58;100.00
71956;BME280;59829;50.562;6.258;2023-04-07T12:58:23;95825.34;;;8.43;100.00
71956;BME280;59829;50.562;6.258;2023-04-07T13:28:24;95839.88;;;8.77;100.00
71956;BME280;59829;50.562;6.258;2023-04-07T13:58:24;95845.28;;;8.62;100.00
71956;BME280;59829;50.562;6.258;2023-04-07T14:28:26;95839.13;;;8.64;100.00
71956;BME280;59829;50.562;6.258;2023-04-07T14:58:28;95841.16;;;8.72;100.00
71956;BME280;59829;50.562;6.258;2023-04-07T15:28:28;95864.97;;;8.84;100.00
71956;BME280;59829;50.562;6.258;2023-04-07T15:58:30;95899.94;;;8.10;100.00
71956;BME280;59829;50.562;6.258;2023-04-07T16:28:30;95912.81;;;7.96;100.00
71956;BME280;59829;50.562;6.258;2023-04-07T16:58:30;95942.38;;;7.35;100.00
71956;BME280;59829;50.562;6.258;2023-04-07T17:28:31;95966.50;;;7.29;100.00
71956;BME280;59829;50.562;6.258;2023-04-07T17:58:32;95988.84;;;7.38;100.00
71956;BME280;59829;50.562;6.258;2023-04-07T18:28:32;96010.00;;;7.26;100.00
71956;BME280;59829;50.562;6.258;2023-04-07T18:58:33;96054.63;;;7.19;100.00
71956;BME280;59829;50.562;6.258;2023-04-07T19:28:34;96088.66;;;7.18;100.00
71956;BME280;59829;50.562;6.258;2023-04-07T19:58:35;96112.50;;;7.17;100.00
71956;BME280;59829;50.562;6.258;2023-04-07T20:28:37;96130.53;;;7.14;100.00
71956;BME280;59829;50.562;6.258;2023-04-07T20:58:37;96144.19;;;7.13;100.00
71956;BME280;59829;50.562;6.258;2023-04-07T21:28:38;96156.09;;;7.12;100.00
71956;BME280;59829;50.562;6.258;2023-04-07T21:58:41;96146.00;;;6.97;100.00
71956;BME280;59829;50.562;6.258;2023-04-07T22:28:42;96160.75;;;6.77;100.00
71956;BME280;59829;50.562;6.258;2023-04-07T22:58:42;96157.44;;;6.75;100.00
71956;BME280;59829;50.562;6.258;2023-04-07T23:28:43;96176.56;;;6.68;100.00
71956;BME280;59829;50.562;6.258;2023-04-07T23:58:43;96193.28;;;6.72;100.00
